createdAt,value
2018-04-26T00:01:09.382Z,86.78
2018-04-26T00:03:36.936Z,87.36
2018-04-26T00:06:04.643Z,87.27
2018-04-26T00:08:32.189Z,86.46
2018-04-26T00:10:59.742Z,86.23
2018-04-26T00:13:27.266Z,85.89
2018-04-26T00:15:54.890Z,85.92
2018-04-26T00:18:22.422Z,85.91
2018-04-26T00:20:50.005Z,85.51
2018-04-26T00:23:17.526Z,86.57
2018-04-26T00:25:45.079Z,86.24
2018-04-26T00:28:12.676Z,87.19
2018-04-26T00:30:40.231Z,86.91
2018-04-26T00:35:41.601Z,88.58
2018-04-26T00:38:09.167Z,88.08
2018-04-26T00:40:36.718Z,86.74
2018-04-26T00:43:04.381Z,87.48
2018-04-26T00:45:32.043Z,87.75
2018-04-26T00:47:59.657Z,88.78
2018-04-26T00:50:27.329Z,89.13
2018-04-26T00:52:54.932Z,89.81
2018-04-26T00:55:22.588Z,89.63
2018-04-26T00:57:50.102Z,89.95
2018-04-26T01:00:17.663Z,90.50
2018-04-26T01:02:45.251Z,90.20
2018-04-26T01:05:12.936Z,89.93
2018-04-26T01:07:40.593Z,89.58
2018-04-26T01:10:08.170Z,89.64
2018-04-26T01:12:35.812Z,89.04
2018-04-26T01:15:03.473Z,88.63
2018-04-26T01:17:31.019Z,88.80
2018-04-26T01:19:58.601Z,88.83
2018-04-26T01:22:26.256Z,88.23
2018-04-26T01:24:53.833Z,89.30
2018-04-26T01:27:21.372Z,89.50
2018-04-26T01:29:49.033Z,89.49
2018-04-26T01:32:16.567Z,90.16
2018-04-26T01:34:44.616Z,89.56
2018-04-26T01:37:23.846Z,89.50
2018-04-26T01:39:51.457Z,89.31
2018-04-26T01:42:19.024Z,90.58
2018-04-26T01:44:46.679Z,87.73
2018-04-26T01:47:14.748Z,89.29
2018-04-26T01:49:42.308Z,90.27
2018-04-26T01:52:09.970Z,90.16
2018-04-26T01:54:37.538Z,89.98
2018-04-26T01:57:05.095Z,89.83
2018-04-26T01:59:32.647Z,90.04
2018-04-26T02:02:00.310Z,90.11
2018-04-26T02:04:27.870Z,90.41
2018-04-26T02:06:55.542Z,90.02
2018-04-26T02:09:23.102Z,90.20
2018-04-26T02:11:50.702Z,90.44
2018-04-26T02:14:18.269Z,90.46
2018-04-26T02:16:45.813Z,90.19
2018-04-26T02:19:13.431Z,90.00
2018-04-26T02:21:41.019Z,89.75
2018-04-26T02:24:08.660Z,89.84
2018-04-26T02:26:36.213Z,89.77
2018-04-26T02:29:03.741Z,89.95
2018-04-26T02:31:31.295Z,89.91
2018-04-26T02:33:58.823Z,89.65
2018-04-26T02:36:26.397Z,89.96
2018-04-26T02:38:53.927Z,90.26
2018-04-26T02:41:21.501Z,90.11
2018-04-26T02:43:49.030Z,89.96
2018-04-26T02:46:16.686Z,89.66
2018-04-26T02:48:44.863Z,89.34
2018-04-26T02:51:12.430Z,88.82
2018-04-26T02:53:39.964Z,89.47
2018-04-26T02:56:07.542Z,88.79
2018-04-26T02:58:35.099Z,89.13
2018-04-26T03:01:02.657Z,88.74
2018-04-26T03:03:30.324Z,89.80
2018-04-26T03:05:57.876Z,89.07
2018-04-26T03:08:25.548Z,88.12
2018-04-26T03:10:53.034Z,87.46
2018-04-26T03:13:20.559Z,88.57
2018-04-26T03:15:48.138Z,87.48
2018-04-26T03:18:15.673Z,87.44
2018-04-26T03:20:43.235Z,87.50
2018-04-26T03:23:10.790Z,87.71
2018-04-26T03:25:38.316Z,87.68
2018-04-26T03:28:05.919Z,88.41
2018-04-26T03:30:33.479Z,87.86
2018-04-26T03:33:01.134Z,87.77
2018-04-26T03:35:28.650Z,87.70
2018-04-26T03:37:56.254Z,87.71
2018-04-26T03:40:23.823Z,87.45
2018-04-26T03:42:51.412Z,87.66
2018-04-26T03:45:18.933Z,87.65
2018-04-26T03:47:46.593Z,88.24
2018-04-26T03:50:15.188Z,87.63
2018-04-26T03:52:42.844Z,87.68
2018-04-26T03:55:10.371Z,88.48
2018-04-26T03:57:37.958Z,88.12
2018-04-26T04:00:17.374Z,87.60
2018-04-26T04:02:57.055Z,86.94
2018-04-26T04:05:36.422Z,86.98
2018-04-26T04:08:04.036Z,87.46
2018-04-26T04:10:31.556Z,88.09
2018-04-26T04:12:59.160Z,87.61
2018-04-26T04:15:26.715Z,88.31
2018-04-26T04:17:54.375Z,88.49
2018-04-26T04:20:21.934Z,88.43
2018-04-26T04:22:49.601Z,88.08
2018-04-26T04:25:17.670Z,88.21
2018-04-26T04:27:45.330Z,88.10
2018-04-26T04:30:12.852Z,87.37
2018-04-26T04:32:40.826Z,87.07
2018-04-26T04:35:08.451Z,86.79
2018-04-26T04:37:36.081Z,87.08
2018-04-26T04:40:03.635Z,86.45
2018-04-26T04:42:31.335Z,86.07
2018-04-26T04:44:58.963Z,85.87
2018-04-26T04:47:26.509Z,85.73
2018-04-26T04:49:54.041Z,85.16
2018-04-26T04:52:21.596Z,85.67
2018-04-26T04:54:49.918Z,86.29
2018-04-26T04:57:20.020Z,85.55
2018-04-26T04:59:47.701Z,85.16
2018-04-26T05:02:23.919Z,85.41
2018-04-26T05:04:51.623Z,84.86
2018-04-26T05:07:21.481Z,85.24
2018-04-26T05:09:50.743Z,85.38
2018-04-26T05:12:21.137Z,85.49
2018-04-26T05:14:55.107Z,84.79
2018-04-26T05:17:22.665Z,85.86
2018-04-26T05:19:50.267Z,85.94
2018-04-26T05:22:17.826Z,85.67
2018-04-26T05:24:45.350Z,85.61
2018-04-26T05:27:14.096Z,85.59
2018-04-26T05:29:41.759Z,85.50
2018-04-26T05:32:09.328Z,85.21
2018-04-26T05:34:37.179Z,85.84
2018-04-26T05:37:07.133Z,85.45
2018-04-26T05:39:34.760Z,86.17
2018-04-26T05:42:02.434Z,84.94
2018-04-26T05:44:30.092Z,85.17
2018-04-26T05:46:57.620Z,84.78
2018-04-26T05:49:25.170Z,84.97
2018-04-26T05:51:52.767Z,85.71
2018-04-26T05:54:20.323Z,84.48
2018-04-26T05:56:47.881Z,84.53
2018-04-26T05:59:15.451Z,84.18
2018-04-26T06:01:43.010Z,84.92
2018-04-26T06:04:10.578Z,85.37
2018-04-26T06:06:38.115Z,84.16
2018-04-26T06:09:05.667Z,84.67
2018-04-26T06:11:33.237Z,84.12
2018-04-26T06:14:00.803Z,84.49
2018-04-26T06:16:28.322Z,83.92
2018-04-26T06:18:55.873Z,84.33
2018-04-26T06:21:23.480Z,84.62
2018-04-26T06:23:51.139Z,84.83
2018-04-26T06:26:18.711Z,82.92
2018-04-26T06:28:46.250Z,83.19
2018-04-26T06:31:15.313Z,84.22
2018-04-26T06:33:42.912Z,84.53
2018-04-26T06:36:10.476Z,83.71
2018-04-26T06:38:38.135Z,84.02
2018-04-26T06:41:05.695Z,83.24
2018-04-26T06:43:33.264Z,83.88
2018-04-26T06:46:00.810Z,81.96
2018-04-26T06:48:28.368Z,81.63
2018-04-26T06:50:55.929Z,81.91
2018-04-26T06:53:23.547Z,81.02
2018-04-26T06:55:51.009Z,80.79
2018-04-26T06:58:18.610Z,81.35
2018-04-26T07:00:46.184Z,81.40
2018-04-26T07:03:13.680Z,82.82
2018-04-26T07:05:41.236Z,81.92
2018-04-26T07:08:08.769Z,81.64
2018-04-26T07:10:36.322Z,81.70
2018-04-26T07:13:03.874Z,79.46
2018-04-26T07:15:31.425Z,79.89
2018-04-26T07:17:58.950Z,79.28
2018-04-26T07:20:26.506Z,78.86
2018-04-26T07:22:54.035Z,79.48
2018-04-26T07:25:21.582Z,79.63
2018-04-26T07:27:49.784Z,79.29
2018-04-26T07:30:18.841Z,79.20
2018-04-26T07:32:46.841Z,77.74
2018-04-26T07:35:16.759Z,79.81
2018-04-26T07:37:44.394Z,76.10
2018-04-26T07:40:13.666Z,78.18
2018-04-26T07:42:42.448Z,76.68
2018-04-26T07:45:10.122Z,76.29
2018-04-26T07:47:39.925Z,76.15
2018-04-26T07:50:07.554Z,75.86
2018-04-26T07:52:39.148Z,73.92
2018-04-26T07:55:09.819Z,74.21
2018-04-26T07:57:40.922Z,73.88
2018-04-26T08:00:08.738Z,73.51
2018-04-26T08:02:39.440Z,75.30
2018-04-26T08:05:08.720Z,75.34
2018-04-26T08:07:40.068Z,73.93
2018-04-26T08:10:09.624Z,71.48
2018-04-26T08:12:39.721Z,71.28
2018-04-26T08:15:10.363Z,69.78
2018-04-26T08:17:39.960Z,68.64
2018-04-26T08:20:10.262Z,70.80
2018-04-26T08:22:40.084Z,69.41
2018-04-26T08:25:08.549Z,69.66
2018-04-26T08:27:36.145Z,68.15
2018-04-26T08:30:03.791Z,69.54
2018-04-26T08:32:31.946Z,71.04
2018-04-26T08:34:59.502Z,68.57
2018-04-26T08:37:28.348Z,69.63
2018-04-26T08:39:55.953Z,69.80
2018-04-26T08:42:23.512Z,69.01
2018-04-26T08:44:51.260Z,66.42
2018-04-26T08:47:18.838Z,67.67
2018-04-26T08:49:46.404Z,66.91
2018-04-26T08:52:15.450Z,68.11
2018-04-26T08:54:43.039Z,65.22
2018-04-26T08:57:10.618Z,65.19
2018-04-26T09:02:06.437Z,62.64
2018-04-26T09:04:33.970Z,62.64
2018-04-26T09:07:01.497Z,64.22
2018-04-26T09:09:29.072Z,64.36
2018-04-26T09:11:56.600Z,64.41
2018-04-26T09:14:24.139Z,65.37
2018-04-26T09:16:51.671Z,64.89
2018-04-26T09:19:19.361Z,67.87
2018-04-26T09:21:46.888Z,66.97
2018-04-26T09:24:14.414Z,66.95
2018-04-26T09:26:42.043Z,62.68
2018-04-26T09:29:09.573Z,62.71
2018-04-26T09:31:37.121Z,62.39
2018-04-26T09:34:04.648Z,62.68
2018-04-26T09:36:32.200Z,62.19
2018-04-26T09:38:59.818Z,61.05
2018-04-26T09:41:27.407Z,59.49
2018-04-26T09:43:54.934Z,59.14
2018-04-26T09:46:22.481Z,58.32
2018-04-26T09:48:50.012Z,57.93
2018-04-26T09:51:17.563Z,58.77
2018-04-26T09:53:45.192Z,60.21
2018-04-26T09:56:12.766Z,60.15
2018-04-26T09:58:40.290Z,57.63
2018-04-26T10:01:09.625Z,59.37
2018-04-26T10:03:38.981Z,60.20
2018-04-26T10:06:27.073Z,59.56
2018-04-26T10:08:54.689Z,58.76
2018-04-26T10:11:22.231Z,58.01
2018-04-26T10:13:49.790Z,58.39
2018-04-26T10:16:17.336Z,59.50
2018-04-26T10:18:44.941Z,60.37
2018-04-26T10:21:12.524Z,61.27
2018-04-26T10:23:40.072Z,59.84
2018-04-26T10:26:07.703Z,57.99
2018-04-26T10:28:35.297Z,58.19
2018-04-26T10:31:02.848Z,56.95
2018-04-26T10:33:30.410Z,57.98
2018-04-26T10:35:57.960Z,56.51
2018-04-26T10:38:25.477Z,52.95
2018-04-26T10:40:53.007Z,54.05
2018-04-26T10:43:20.662Z,53.61
2018-04-26T10:45:48.357Z,54.92
2018-04-26T10:48:15.972Z,54.57
2018-04-26T10:50:46.467Z,52.24
2018-04-26T10:53:14.370Z,52.17
2018-04-26T10:55:42.136Z,50.54
2018-04-26T10:58:10.087Z,50.44
2018-04-26T11:00:38.377Z,48.23
2018-04-26T11:03:06.346Z,51.26
2018-04-26T11:05:34.529Z,49.85
2018-04-26T11:08:07.255Z,50.45
2018-04-26T11:10:41.237Z,49.92
2018-04-26T11:13:09.493Z,50.05
2018-04-26T11:15:37.204Z,51.93
2018-04-26T11:18:07.918Z,51.48
2018-04-26T11:20:35.446Z,50.34
2018-04-26T11:23:04.304Z,50.42
2018-04-26T11:25:34.249Z,50.63
2018-04-26T11:28:02.165Z,50.84
2018-04-26T11:30:30.053Z,52.81
2018-04-26T11:32:57.765Z,51.16
2018-04-26T11:35:27.358Z,51.80
2018-04-26T11:37:55.705Z,52.04
2018-04-26T11:40:23.664Z,52.09
2018-04-26T11:42:51.668Z,52.38
2018-04-26T11:45:22.292Z,51.72
2018-04-26T11:47:50.397Z,50.46
2018-04-26T11:50:18.149Z,52.10
2018-04-26T11:52:47.947Z,50.76
2018-04-26T11:55:17.623Z,52.18
2018-04-26T11:57:45.959Z,51.68
2018-04-26T12:00:15.747Z,50.86
2018-04-26T12:02:45.747Z,50.52
2018-04-26T12:05:15.508Z,51.69
2018-04-26T12:07:46.314Z,51.12
2018-04-26T12:10:16.354Z,50.14
2018-04-26T12:12:44.117Z,51.10
2018-04-26T12:15:11.646Z,49.43
2018-04-26T12:17:39.197Z,49.91
2018-04-26T12:20:06.730Z,49.97
2018-04-26T12:22:34.328Z,50.21
2018-04-26T12:25:01.867Z,49.62
2018-04-26T12:27:29.428Z,49.97
2018-04-26T12:29:56.957Z,50.43
2018-04-26T12:32:24.510Z,49.44
2018-04-26T12:34:52.014Z,50.42
2018-04-26T12:37:19.567Z,47.01
2018-04-26T12:39:47.092Z,47.76
2018-04-26T12:42:14.653Z,47.66
2018-04-26T12:44:42.197Z,48.01
2018-04-26T12:47:09.749Z,48.09
2018-04-26T12:49:37.383Z,47.32
2018-04-26T12:52:04.902Z,48.15
2018-04-26T12:54:32.454Z,48.42
2018-04-26T12:56:59.982Z,48.38
2018-04-26T12:59:27.533Z,47.37
2018-04-26T13:01:55.081Z,47.56
2018-04-26T13:04:22.640Z,48.26
2018-04-26T13:06:50.165Z,46.60
2018-04-26T13:09:17.720Z,45.75
2018-04-26T13:11:45.244Z,46.34
2018-04-26T13:14:12.889Z,46.37
2018-04-26T13:16:40.378Z,45.77
2018-04-26T13:19:07.999Z,46.09
2018-04-26T13:21:35.533Z,46.52
2018-04-26T13:24:03.273Z,46.42
2018-04-26T13:26:30.807Z,46.64
2018-04-26T13:28:58.362Z,46.38
2018-04-26T13:31:25.883Z,45.86
2018-04-26T13:33:54.165Z,45.54
2018-04-26T13:36:21.769Z,44.45
2018-04-26T13:38:49.395Z,44.32
2018-04-26T13:41:18.592Z,43.97
2018-04-26T13:43:46.523Z,43.60
2018-04-26T13:46:14.101Z,44.02
2018-04-26T13:48:41.679Z,45.23
2018-04-26T13:51:09.537Z,43.52
2018-04-26T13:53:37.302Z,43.69
2018-04-26T13:56:10.235Z,44.55
2018-04-26T13:58:41.058Z,45.58
2018-04-26T14:01:13.259Z,43.58
2018-04-26T14:03:41.445Z,42.66
2018-04-26T14:06:09.139Z,42.99
2018-04-26T14:08:37.473Z,43.60
2018-04-26T14:11:05.220Z,42.92
2018-04-26T14:13:33.146Z,43.75
2018-04-26T14:16:02.048Z,44.16
2018-04-26T14:18:32.759Z,45.07
2018-04-26T14:21:09.533Z,44.46
2018-04-26T14:23:39.459Z,44.53
2018-04-26T14:26:07.537Z,44.71
2018-04-26T14:28:35.092Z,44.98
2018-04-26T14:31:02.640Z,45.83
2018-04-26T14:33:30.363Z,45.59
2018-04-26T14:35:58.171Z,45.79
2018-04-26T14:38:25.750Z,45.29
2018-04-26T14:40:53.274Z,44.62
2018-04-26T14:43:20.951Z,44.79
2018-04-26T14:45:48.935Z,45.12
2018-04-26T14:48:16.482Z,45.81
2018-04-26T14:50:44.332Z,44.77
2018-04-26T14:53:12.265Z,44.96
2018-04-26T14:55:40.102Z,45.30
2018-04-26T14:58:07.693Z,44.85
2018-04-26T15:00:35.247Z,42.81
2018-04-26T15:03:02.842Z,43.77
2018-04-26T15:05:30.540Z,43.68
2018-04-26T15:07:58.080Z,44.59
2018-04-26T15:10:26.333Z,42.11
2018-04-26T15:12:53.916Z,42.48
2018-04-26T15:15:21.472Z,41.92
2018-04-26T15:17:48.991Z,41.30
2018-04-26T15:20:16.530Z,41.00
2018-04-26T15:22:44.165Z,40.61
2018-04-26T15:25:12.043Z,41.79
2018-04-26T15:27:39.622Z,40.69
2018-04-26T15:30:07.242Z,41.73
2018-04-26T15:32:34.746Z,41.96
2018-04-26T15:35:02.302Z,41.38
2018-04-26T15:37:29.823Z,41.41
2018-04-26T15:39:57.456Z,41.28
2018-04-26T15:42:25.002Z,41.62
2018-04-26T15:44:52.558Z,41.37
2018-04-26T15:47:20.085Z,40.40
2018-04-26T15:49:50.065Z,39.73
2018-04-26T15:52:31.940Z,39.28
2018-04-26T15:58:13.004Z,41.77
2018-04-26T16:00:58.143Z,41.09
2018-04-26T16:03:37.677Z,41.87
2018-04-26T16:06:30.701Z,42.73
2018-04-26T16:09:10.289Z,40.49
2018-04-26T16:11:50.969Z,40.18
2018-04-26T16:14:33.877Z,39.07
2018-04-26T16:17:32.412Z,39.24
2018-04-26T16:23:27.239Z,41.50
2018-04-26T16:26:07.852Z,42.37
2018-04-26T16:28:53.098Z,42.38
2018-04-26T16:31:38.994Z,43.15
2018-04-26T16:34:19.045Z,43.13
2018-04-26T16:36:58.637Z,43.73
2018-04-26T16:39:29.234Z,41.46
2018-04-26T16:41:56.807Z,41.64
2018-04-26T16:44:24.683Z,41.42
2018-04-26T16:46:52.166Z,39.58
2018-04-26T16:49:20.376Z,40.84
2018-04-26T16:51:48.316Z,41.38
2018-04-26T16:54:16.352Z,41.03
2018-04-26T16:56:43.945Z,41.53
2018-04-26T16:59:13.703Z,41.68
2018-04-26T17:01:43.549Z,41.79
2018-04-26T17:04:12.604Z,41.44
2018-04-26T17:06:42.153Z,42.05
2018-04-26T17:09:12.119Z,42.02
2018-04-26T17:11:40.704Z,42.64
2018-04-26T17:14:08.212Z,40.73
2018-04-26T17:16:35.845Z,40.55
2018-04-26T17:19:03.400Z,40.43
2018-04-26T17:21:31.044Z,41.27
2018-04-26T17:23:59.384Z,40.43
2018-04-26T17:26:28.100Z,39.09
2018-04-26T17:28:55.785Z,39.45
2018-04-26T17:31:23.971Z,39.21
2018-04-26T17:33:51.951Z,41.14
2018-04-26T17:36:20.046Z,40.57
2018-04-26T17:38:47.586Z,40.11
2018-04-26T17:41:17.069Z,39.61
2018-04-26T17:43:48.087Z,39.63
2018-04-26T17:46:18.965Z,39.79
2018-04-26T17:48:49.673Z,40.34
2018-04-26T17:51:23.522Z,41.06
2018-04-26T17:53:58.098Z,41.82
2018-04-26T17:56:30.284Z,41.85
2018-04-26T17:59:01.053Z,42.90
2018-04-26T18:01:34.786Z,42.75
2018-04-26T18:04:08.266Z,43.43
2018-04-26T18:06:41.463Z,46.04
2018-04-26T18:11:49.215Z,48.66
2018-04-26T18:14:20.325Z,47.78
2018-04-26T18:16:51.665Z,49.18
2018-04-26T18:19:25.871Z,49.55
2018-04-26T18:21:56.824Z,49.09
2018-04-26T18:24:28.902Z,49.48
2018-04-26T18:27:01.227Z,49.95
2018-04-26T18:29:33.187Z,49.67
2018-04-26T18:32:04.621Z,50.14
2018-04-26T18:34:36.282Z,50.31
2018-04-26T18:37:08.009Z,50.68
2018-04-26T18:39:39.697Z,51.32
2018-04-26T18:42:10.652Z,51.12
2018-04-26T18:44:41.540Z,51.41
2018-04-26T18:47:12.443Z,51.78
2018-04-26T18:49:42.945Z,51.72
2018-04-26T18:52:13.551Z,52.14
2018-04-26T18:54:44.465Z,52.56
2018-04-26T18:59:51.536Z,52.71
2018-04-26T19:02:22.400Z,52.70
2018-04-26T19:04:53.136Z,53.32
2018-04-26T19:07:24.177Z,54.44
2018-04-26T19:09:55.088Z,54.30
2018-04-26T19:12:25.623Z,54.69
2018-04-26T19:14:56.722Z,55.02
2018-04-26T19:17:27.528Z,54.72
2018-04-26T19:19:59.538Z,54.86
2018-04-26T19:22:30.729Z,55.48
2018-04-26T19:25:04.139Z,55.84
2018-04-26T19:27:34.868Z,55.73
2018-04-26T19:30:03.345Z,56.29
2018-04-26T19:32:32.937Z,56.59
2018-04-26T19:35:00.619Z,56.25
2018-04-26T19:37:28.151Z,56.48
2018-04-26T19:40:00.193Z,56.34
2018-04-26T19:42:27.749Z,56.73
2018-04-26T19:44:55.301Z,57.00
2018-04-26T19:47:22.899Z,57.16
2018-04-26T19:49:50.555Z,57.29
2018-04-26T19:52:18.074Z,57.57
2018-04-26T19:54:45.705Z,57.95
2018-04-26T19:57:14.411Z,58.78
2018-04-26T19:59:41.967Z,61.48
2018-04-26T20:02:09.490Z,62.51
2018-04-26T20:04:37.001Z,61.95
2018-04-26T20:07:04.568Z,62.57
2018-04-26T20:09:32.127Z,62.95
2018-04-26T20:12:00.129Z,63.15
2018-04-26T20:14:27.706Z,64.15
2018-04-26T20:16:58.668Z,64.41
2018-04-26T20:19:26.234Z,65.56
2018-04-26T20:21:53.790Z,65.89
2018-04-26T20:24:21.310Z,65.50
2018-04-26T20:26:48.947Z,65.81
2018-04-26T20:29:16.441Z,66.30
2018-04-26T20:31:43.999Z,66.61
2018-04-26T20:34:11.545Z,67.31
2018-04-26T20:36:39.073Z,67.39
2018-04-26T20:39:06.626Z,67.01
2018-04-26T20:41:46.117Z,67.41
2018-04-26T20:44:25.488Z,67.01
2018-04-26T20:46:53.003Z,67.24
2018-04-26T20:49:20.561Z,67.74
2018-04-26T20:51:48.089Z,68.08
2018-04-26T20:54:15.629Z,67.84
2018-04-26T20:56:43.166Z,68.00
2018-04-26T20:59:10.667Z,68.37
2018-04-26T21:01:38.620Z,68.87
2018-04-26T21:04:06.220Z,68.47
2018-04-26T21:06:34.675Z,69.04
2018-04-26T21:09:02.204Z,70.50
2018-04-26T21:11:29.753Z,69.86
2018-04-26T21:13:57.334Z,69.64
2018-04-26T21:16:24.910Z,69.42
2018-04-26T21:18:52.436Z,70.34
2018-04-26T21:21:19.988Z,70.40
2018-04-26T21:23:47.514Z,74.25
2018-04-26T21:26:15.066Z,73.19
2018-04-26T21:28:42.640Z,72.81
2018-04-26T21:31:10.130Z,71.30
2018-04-26T21:33:37.673Z,71.69
2018-04-26T21:36:05.225Z,71.43
2018-04-26T21:38:32.777Z,71.71
2018-04-26T21:41:00.341Z,71.73
2018-04-26T21:43:27.876Z,72.25
2018-04-26T21:45:55.411Z,72.59
2018-04-26T21:48:23.020Z,72.52
2018-04-26T21:50:57.216Z,72.75
2018-04-26T21:53:30.442Z,72.67
2018-04-26T21:56:03.517Z,73.02
2018-04-26T21:58:40.143Z,73.19
2018-04-26T22:01:17.201Z,73.05
2018-04-26T22:03:47.595Z,72.84
2018-04-26T22:06:15.447Z,73.58
2018-04-26T22:08:43.311Z,73.63
2018-04-26T22:11:11.534Z,73.53
2018-04-26T22:13:40.914Z,72.95
2018-04-26T22:16:08.937Z,74.37
2018-04-26T22:18:36.590Z,74.29
2018-04-26T22:21:08.757Z,74.81
2018-04-26T22:23:40.768Z,75.01
2018-04-26T22:26:08.521Z,74.81
2018-04-26T22:28:36.249Z,75.56
2018-04-26T22:31:04.306Z,75.88
2018-04-26T22:33:32.336Z,75.59
2018-04-26T22:36:00.377Z,74.87
2018-04-26T22:38:27.906Z,75.45
2018-04-26T22:40:55.781Z,75.42
2018-04-26T22:43:23.441Z,74.80
2018-04-26T22:45:52.168Z,76.01
2018-04-26T22:48:19.816Z,74.77
2018-04-26T22:50:47.418Z,74.92
2018-04-26T22:53:15.021Z,75.06
2018-04-26T22:55:42.930Z,76.62
2018-04-26T22:58:10.526Z,76.27
2018-04-26T23:00:38.104Z,76.34
2018-04-26T23:03:05.710Z,75.51
2018-04-26T23:05:33.227Z,75.09
2018-04-26T23:08:05.711Z,75.78
2018-04-26T23:10:33.486Z,75.96
2018-04-26T23:13:01.114Z,75.91
2018-04-26T23:15:28.838Z,75.50
2018-04-26T23:17:56.761Z,76.26
2018-04-26T23:20:24.292Z,76.68
2018-04-26T23:22:51.929Z,76.24
2018-04-26T23:25:19.614Z,76.91
2018-04-26T23:27:47.304Z,76.72
2018-04-26T23:30:20.103Z,76.78
2018-04-26T23:32:48.310Z,76.51
2018-04-26T23:35:15.836Z,76.53
2018-04-26T23:37:43.459Z,77.28
2018-04-26T23:40:11.083Z,77.27
2018-04-26T23:42:38.844Z,77.25
2018-04-26T23:45:06.733Z,76.60
2018-04-26T23:47:35.541Z,77.23
2018-04-26T23:50:03.101Z,77.21
2018-04-26T23:52:30.726Z,76.87
2018-04-26T23:54:58.277Z,76.94
2018-04-26T23:57:25.806Z,76.88
2018-04-26T23:59:53.353Z,77.83
